sensor_id;sensor_type;location;lat;lon;timestamp;P1;durP1;ratioP1;P2;durP2;ratioP2
21352;SDS011;10834;52.268;6.770;2022-10-23T00:00:19;28.20;;;14.33;;
21352;SDS011;10834;52.268;6.770;2022-10-23T00:03:05;20.60;;;12.00;;
21352;SDS011;10834;52.268;6.770;2022-10-23T00:05:51;19.67;;;10.87;;
21352;SDS011;10834;52.268;6.770;2022-10-23T00:08:38;16.60;;;10.37;;
21352;SDS011;10834;52.268;6.770;2022-10-23T00:11:25;14.53;;;10.00;;
21352;SDS011;10834;52.268;6.770;2022-10-23T00:14:13;13.23;;;9.77;;
21352;SDS011;10834;52.268;6.770;2022-10-23T00:17:02;16.63;;;9.53;;
21352;SDS011;10834;52.268;6.770;2022-10-23T00:19:48;14.90;;;9.27;;
21352;SDS011;10834;52.268;6.770;2022-10-23T00:22:34;20.73;;;10.20;;
21352;SDS011;10834;52.268;6.770;2022-10-23T00:25:20;15.90;;;9.77;;
21352;SDS011;10834;52.268;6.770;2022-10-23T00:28:06;15.40;;;9.53;;
21352;SDS011;10834;52.268;6.770;2022-10-23T00:30:53;19.47;;;10.53;;
21352;SDS011;10834;52.268;6.770;2022-10-23T00:33:39;13.70;;;9.83;;
21352;SDS011;10834;52.268;6.770;2022-10-23T00:36:25;16.13;;;10.00;;
21352;SDS011;10834;52.268;6.770;2022-10-23T00:39:11;10.93;;;8.17;;
21352;SDS011;10834;52.268;6.770;2022-10-23T00:41:58;19.07;;;9.30;;
21352;SDS011;10834;52.268;6.770;2022-10-23T00:47:30;25.17;;;11.93;;
21352;SDS011;10834;52.268;6.770;2022-10-23T00:50:16;21.23;;;10.13;;
21352;SDS011;10834;52.268;6.770;2022-10-23T00:53:04;21.47;;;11.23;;
21352;SDS011;10834;52.268;6.770;2022-10-23T00:55:50;24.40;;;11.80;;
21352;SDS011;10834;52.268;6.770;2022-10-23T00:58:39;17.10;;;10.40;;
21352;SDS011;10834;52.268;6.770;2022-10-23T01:01:25;16.70;;;9.60;;
21352;SDS011;10834;52.268;6.770;2022-10-23T01:04:11;16.37;;;9.30;;
21352;SDS011;10834;52.268;6.770;2022-10-23T01:10:53;14.00;;;8.23;;
21352;SDS011;10834;52.268;6.770;2022-10-23T01:16:13;15.17;;;9.10;;
21352;SDS011;10834;52.268;6.770;2022-10-23T01:19:42;15.13;;;8.17;;
21352;SDS011;10834;52.268;6.770;2022-10-23T01:26:59;17.50;;;9.60;;
21352;SDS011;10834;52.268;6.770;2022-10-23T01:29:35;25.10;;;8.83;;
21352;SDS011;10834;52.268;6.770;2022-10-23T01:32:28;15.00;;;9.27;;
21352;SDS011;10834;52.268;6.770;2022-10-23T01:39:02;18.30;;;8.30;;
21352;SDS011;10834;52.268;6.770;2022-10-23T01:41:54;12.97;;;8.70;;
21352;SDS011;10834;52.268;6.770;2022-10-23T01:44:52;18.23;;;9.73;;
21352;SDS011;10834;52.268;6.770;2022-10-23T01:47:45;13.43;;;8.57;;
21352;SDS011;10834;52.268;6.770;2022-10-23T01:50:33;10.73;;;7.93;;
21352;SDS011;10834;52.268;6.770;2022-10-23T01:53:21;18.60;;;9.23;;
21352;SDS011;10834;52.268;6.770;2022-10-23T01:56:10;10.60;;;7.67;;
21352;SDS011;10834;52.268;6.770;2022-10-23T01:59:03;19.03;;;9.53;;
21352;SDS011;10834;52.268;6.770;2022-10-23T02:01:53;14.77;;;8.60;;
21352;SDS011;10834;52.268;6.770;2022-10-23T02:04:56;18.10;;;9.40;;
21352;SDS011;10834;52.268;6.770;2022-10-23T02:07:50;13.83;;;9.27;;
21352;SDS011;10834;52.268;6.770;2022-10-23T02:17:25;13.17;;;8.40;;
21352;SDS011;10834;52.268;6.770;2022-10-23T02:20:28;17.03;;;10.13;;
21352;SDS011;10834;52.268;6.770;2022-10-23T02:23:30;16.23;;;11.13;;
21352;SDS011;10834;52.268;6.770;2022-10-23T02:26:25;19.07;;;10.20;;
21352;SDS011;10834;52.268;6.770;2022-10-23T02:29:18;15.57;;;8.73;;
21352;SDS011;10834;52.268;6.770;2022-10-23T02:32:08;18.93;;;10.03;;
21352;SDS011;10834;52.268;6.770;2022-10-23T02:34:55;15.27;;;9.00;;
21352;SDS011;10834;52.268;6.770;2022-10-23T02:37:41;14.20;;;9.77;;
21352;SDS011;10834;52.268;6.770;2022-10-23T02:40:30;17.00;;;10.13;;
21352;SDS011;10834;52.268;6.770;2022-10-23T02:43:25;14.93;;;9.17;;
21352;SDS011;10834;52.268;6.770;2022-10-23T02:46:24;12.03;;;8.00;;
21352;SDS011;10834;52.268;6.770;2022-10-23T02:49:21;14.17;;;8.33;;
21352;SDS011;10834;52.268;6.770;2022-10-23T02:52:30;16.07;;;9.83;;
21352;SDS011;10834;52.268;6.770;2022-10-23T02:55:39;15.00;;;8.80;;
21352;SDS011;10834;52.268;6.770;2022-10-23T03:01:34;17.33;;;9.60;;
21352;SDS011;10834;52.268;6.770;2022-10-23T03:04:39;17.97;;;9.17;;
21352;SDS011;10834;52.268;6.770;2022-10-23T03:07:28;20.80;;;11.07;;
21352;SDS011;10834;52.268;6.770;2022-10-23T03:10:14;14.13;;;9.60;;
21352;SDS011;10834;52.268;6.770;2022-10-23T03:13:00;16.00;;;9.60;;
21352;SDS011;10834;52.268;6.770;2022-10-23T03:15:46;20.80;;;10.40;;
21352;SDS011;10834;52.268;6.770;2022-10-23T03:18:32;24.40;;;11.03;;
21352;SDS011;10834;52.268;6.770;2022-10-23T03:21:18;16.97;;;10.23;;
21352;SDS011;10834;52.268;6.770;2022-10-23T03:24:04;18.80;;;10.87;;
21352;SDS011;10834;52.268;6.770;2022-10-23T03:26:51;19.03;;;10.07;;
21352;SDS011;10834;52.268;6.770;2022-10-23T03:29:37;13.17;;;9.47;;
21352;SDS011;10834;52.268;6.770;2022-10-23T03:32:23;19.00;;;10.93;;
21352;SDS011;10834;52.268;6.770;2022-10-23T03:35:09;25.07;;;10.70;;
21352;SDS011;10834;52.268;6.770;2022-10-23T03:37:55;15.50;;;9.87;;
21352;SDS011;10834;52.268;6.770;2022-10-23T03:40:41;14.40;;;9.70;;
21352;SDS011;10834;52.268;6.770;2022-10-23T03:43:28;19.37;;;10.60;;
21352;SDS011;10834;52.268;6.770;2022-10-23T03:46:14;18.20;;;10.67;;
21352;SDS011;10834;52.268;6.770;2022-10-23T03:49:00;17.87;;;10.97;;
21352;SDS011;10834;52.268;6.770;2022-10-23T03:51:45;25.33;;;11.80;;
21352;SDS011;10834;52.268;6.770;2022-10-23T03:54:36;20.27;;;11.43;;
21352;SDS011;10834;52.268;6.770;2022-10-23T03:57:22;24.17;;;11.80;;
21352;SDS011;10834;52.268;6.770;2022-10-23T04:00:09;17.37;;;11.00;;
21352;SDS011;10834;52.268;6.770;2022-10-23T04:02:55;20.07;;;10.37;;
21352;SDS011;10834;52.268;6.770;2022-10-23T04:05:41;19.80;;;11.77;;
21352;SDS011;10834;52.268;6.770;2022-10-23T04:08:27;24.27;;;11.63;;
21352;SDS011;10834;52.268;6.770;2022-10-23T04:11:13;21.87;;;11.87;;
21352;SDS011;10834;52.268;6.770;2022-10-23T04:13:59;20.03;;;11.43;;
21352;SDS011;10834;52.268;6.770;2022-10-23T04:16:45;16.57;;;10.87;;
21352;SDS011;10834;52.268;6.770;2022-10-23T04:19:31;19.33;;;11.00;;
21352;SDS011;10834;52.268;6.770;2022-10-23T04:22:17;19.63;;;11.33;;
21352;SDS011;10834;52.268;6.770;2022-10-23T04:25:03;16.83;;;11.00;;
21352;SDS011;10834;52.268;6.770;2022-10-23T04:27:50;13.87;;;10.57;;
21352;SDS011;10834;52.268;6.770;2022-10-23T04:30:36;15.53;;;11.00;;
21352;SDS011;10834;52.268;6.770;2022-10-23T04:33:22;16.37;;;10.17;;
21352;SDS011;10834;52.268;6.770;2022-10-23T04:36:08;16.07;;;9.77;;
21352;SDS011;10834;52.268;6.770;2022-10-23T04:38:55;18.87;;;10.53;;
21352;SDS011;10834;52.268;6.770;2022-10-23T04:41:41;19.47;;;11.33;;
21352;SDS011;10834;52.268;6.770;2022-10-23T04:44:27;19.87;;;10.93;;
21352;SDS011;10834;52.268;6.770;2022-10-23T04:47:13;20.40;;;11.23;;
21352;SDS011;10834;52.268;6.770;2022-10-23T04:49:59;19.63;;;11.30;;
21352;SDS011;10834;52.268;6.770;2022-10-23T04:52:45;18.93;;;10.63;;
21352;SDS011;10834;52.268;6.770;2022-10-23T04:55:31;14.37;;;9.83;;
21352;SDS011;10834;52.268;6.770;2022-10-23T04:58:17;11.97;;;9.93;;
21352;SDS011;10834;52.268;6.770;2022-10-23T05:01:04;16.23;;;11.27;;
21352;SDS011;10834;52.268;6.770;2022-10-23T05:03:51;13.53;;;9.70;;
21352;SDS011;10834;52.268;6.770;2022-10-23T05:06:38;14.97;;;9.50;;
21352;SDS011;10834;52.268;6.770;2022-10-23T05:09:24;20.23;;;11.17;;
21352;SDS011;10834;52.268;6.770;2022-10-23T05:12:10;14.83;;;10.00;;
21352;SDS011;10834;52.268;6.770;2022-10-23T05:14:56;15.73;;;10.40;;
21352;SDS011;10834;52.268;6.770;2022-10-23T05:17:43;14.27;;;10.50;;
21352;SDS011;10834;52.268;6.770;2022-10-23T05:20:32;19.00;;;10.43;;
21352;SDS011;10834;52.268;6.770;2022-10-23T05:23:21;13.80;;;9.70;;
21352;SDS011;10834;52.268;6.770;2022-10-23T05:26:09;15.00;;;9.40;;
21352;SDS011;10834;52.268;6.770;2022-10-23T05:28:55;15.33;;;9.90;;
21352;SDS011;10834;52.268;6.770;2022-10-23T05:31:41;18.43;;;9.63;;
21352;SDS011;10834;52.268;6.770;2022-10-23T05:34:27;16.83;;;10.73;;
21352;SDS011;10834;52.268;6.770;2022-10-23T05:37:16;15.57;;;10.10;;
21352;SDS011;10834;52.268;6.770;2022-10-23T05:40:02;14.37;;;9.43;;
21352;SDS011;10834;52.268;6.770;2022-10-23T05:42:49;14.90;;;8.47;;
21352;SDS011;10834;52.268;6.770;2022-10-23T05:45:35;21.27;;;10.67;;
21352;SDS011;10834;52.268;6.770;2022-10-23T05:48:21;16.97;;;10.43;;
21352;SDS011;10834;52.268;6.770;2022-10-23T05:51:08;11.47;;;9.90;;
21352;SDS011;10834;52.268;6.770;2022-10-23T05:53:56;19.00;;;10.53;;
21352;SDS011;10834;52.268;6.770;2022-10-23T05:56:42;18.10;;;11.10;;
21352;SDS011;10834;52.268;6.770;2022-10-23T05:59:28;17.23;;;11.00;;
21352;SDS011;10834;52.268;6.770;2022-10-23T06:02:14;14.47;;;10.17;;
21352;SDS011;10834;52.268;6.770;2022-10-23T06:05:00;16.27;;;10.20;;
21352;SDS011;10834;52.268;6.770;2022-10-23T06:07:46;18.33;;;10.60;;
21352;SDS011;10834;52.268;6.770;2022-10-23T06:10:32;22.23;;;10.90;;
21352;SDS011;10834;52.268;6.770;2022-10-23T06:13:18;16.97;;;11.80;;
21352;SDS011;10834;52.268;6.770;2022-10-23T06:16:08;15.00;;;10.00;;
21352;SDS011;10834;52.268;6.770;2022-10-23T06:18:58;19.47;;;11.17;;
21352;SDS011;10834;52.268;6.770;2022-10-23T06:21:45;16.93;;;11.00;;
21352;SDS011;10834;52.268;6.770;2022-10-23T06:24:31;23.30;;;11.93;;
21352;SDS011;10834;52.268;6.770;2022-10-23T06:27:17;17.80;;;11.50;;
21352;SDS011;10834;52.268;6.770;2022-10-23T06:30:03;15.03;;;11.00;;
21352;SDS011;10834;52.268;6.770;2022-10-23T06:32:51;19.13;;;13.57;;
21352;SDS011;10834;52.268;6.770;2022-10-23T06:35:38;14.63;;;11.63;;
21352;SDS011;10834;52.268;6.770;2022-10-23T06:38:24;19.60;;;12.70;;
21352;SDS011;10834;52.268;6.770;2022-10-23T06:41:12;14.93;;;11.57;;
21352;SDS011;10834;52.268;6.770;2022-10-23T06:44:00;17.73;;;12.30;;
21352;SDS011;10834;52.268;6.770;2022-10-23T06:46:46;18.17;;;11.87;;
21352;SDS011;10834;52.268;6.770;2022-10-23T06:49:32;18.03;;;11.23;;
21352;SDS011;10834;52.268;6.770;2022-10-23T06:52:18;13.77;;;10.73;;
21352;SDS011;10834;52.268;6.770;2022-10-23T06:55:04;15.10;;;10.80;;
21352;SDS011;10834;52.268;6.770;2022-10-23T06:57:50;14.10;;;9.80;;
21352;SDS011;10834;52.268;6.770;2022-10-23T07:00:36;15.77;;;10.47;;
21352;SDS011;10834;52.268;6.770;2022-10-23T07:03:23;20.50;;;11.80;;
21352;SDS011;10834;52.268;6.770;2022-10-23T07:06:09;18.93;;;12.10;;
21352;SDS011;10834;52.268;6.770;2022-10-23T07:08:56;14.60;;;10.73;;
21352;SDS011;10834;52.268;6.770;2022-10-23T07:11:43;17.57;;;10.40;;
21352;SDS011;10834;52.268;6.770;2022-10-23T07:14:29;16.90;;;11.40;;
21352;SDS011;10834;52.268;6.770;2022-10-23T07:17:16;15.83;;;10.47;;
21352;SDS011;10834;52.268;6.770;2022-10-23T07:20:02;16.30;;;10.93;;
21352;SDS011;10834;52.268;6.770;2022-10-23T07:22:52;15.90;;;10.33;;
21352;SDS011;10834;52.268;6.770;2022-10-23T07:25:39;16.50;;;9.83;;
21352;SDS011;10834;52.268;6.770;2022-10-23T07:28:25;16.97;;;11.07;;
21352;SDS011;10834;52.268;6.770;2022-10-23T07:31:11;16.43;;;11.07;;
21352;SDS011;10834;52.268;6.770;2022-10-23T07:33:58;17.23;;;9.53;;
21352;SDS011;10834;52.268;6.770;2022-10-23T07:36:44;18.17;;;10.80;;
21352;SDS011;10834;52.268;6.770;2022-10-23T07:39:30;13.63;;;9.67;;
21352;SDS011;10834;52.268;6.770;2022-10-23T07:42:16;19.70;;;10.63;;
21352;SDS011;10834;52.268;6.770;2022-10-23T07:45:02;17.70;;;10.60;;
21352;SDS011;10834;52.268;6.770;2022-10-23T07:47:50;14.10;;;9.83;;
21352;SDS011;10834;52.268;6.770;2022-10-23T07:50:36;15.57;;;10.70;;
21352;SDS011;10834;52.268;6.770;2022-10-23T07:53:24;15.87;;;10.20;;
21352;SDS011;10834;52.268;6.770;2022-10-23T07:56:17;14.40;;;8.70;;
21352;SDS011;10834;52.268;6.770;2022-10-23T07:59:09;13.87;;;9.17;;
21352;SDS011;10834;52.268;6.770;2022-10-23T08:01:57;14.90;;;9.50;;
21352;SDS011;10834;52.268;6.770;2022-10-23T08:04:43;12.13;;;9.07;;
21352;SDS011;10834;52.268;6.770;2022-10-23T08:07:29;11.17;;;8.70;;
21352;SDS011;10834;52.268;6.770;2022-10-23T08:10:15;12.63;;;8.10;;
21352;SDS011;10834;52.268;6.770;2022-10-23T08:13:01;13.83;;;7.23;;
21352;SDS011;10834;52.268;6.770;2022-10-23T08:15:48;11.73;;;7.40;;
21352;SDS011;10834;52.268;6.770;2022-10-23T08:18:34;7.77;;;6.13;;
21352;SDS011;10834;52.268;6.770;2022-10-23T08:21:20;9.87;;;6.60;;
21352;SDS011;10834;52.268;6.770;2022-10-23T08:24:06;10.30;;;6.23;;
21352;SDS011;10834;52.268;6.770;2022-10-23T08:26:58;10.80;;;7.17;;
21352;SDS011;10834;52.268;6.770;2022-10-23T08:29:44;8.03;;;7.03;;
21352;SDS011;10834;52.268;6.770;2022-10-23T08:32:30;10.43;;;6.70;;
21352;SDS011;10834;52.268;6.770;2022-10-23T08:35:16;8.67;;;6.10;;
21352;SDS011;10834;52.268;6.770;2022-10-23T08:38:03;13.47;;;6.80;;
21352;SDS011;10834;52.268;6.770;2022-10-23T08:40:49;9.37;;;6.73;;
21352;SDS011;10834;52.268;6.770;2022-10-23T08:43:40;13.63;;;5.80;;
21352;SDS011;10834;52.268;6.770;2022-10-23T08:46:33;7.43;;;6.10;;
21352;SDS011;10834;52.268;6.770;2022-10-23T08:52:38;12.10;;;6.90;;
21352;SDS011;10834;52.268;6.770;2022-10-23T08:55:33;9.60;;;7.50;;
21352;SDS011;10834;52.268;6.770;2022-10-23T08:58:23;13.40;;;11.63;;
21352;SDS011;10834;52.268;6.770;2022-10-23T09:01:39;18.83;;;13.00;;
21352;SDS011;10834;52.268;6.770;2022-10-23T09:04:26;23.10;;;15.60;;
21352;SDS011;10834;52.268;6.770;2022-10-23T09:19:23;10.07;;;7.13;;
21352;SDS011;10834;52.268;6.770;2022-10-23T09:22:12;13.20;;;7.27;;
21352;SDS011;10834;52.268;6.770;2022-10-23T09:24:58;12.77;;;6.23;;
21352;SDS011;10834;52.268;6.770;2022-10-23T09:27:45;8.53;;;6.27;;
21352;SDS011;10834;52.268;6.770;2022-10-23T09:30:37;8.77;;;5.87;;
21352;SDS011;10834;52.268;6.770;2022-10-23T09:33:26;8.83;;;5.33;;
21352;SDS011;10834;52.268;6.770;2022-10-23T09:39:03;8.03;;;6.67;;
21352;SDS011;10834;52.268;6.770;2022-10-23T09:41:49;14.07;;;6.43;;
21352;SDS011;10834;52.268;6.770;2022-10-23T09:44:35;7.97;;;6.47;;
21352;SDS011;10834;52.268;6.770;2022-10-23T09:47:31;8.33;;;5.10;;
21352;SDS011;10834;52.268;6.770;2022-10-23T09:50:20;6.07;;;4.67;;
21352;SDS011;10834;52.268;6.770;2022-10-23T09:53:10;7.27;;;4.80;;
21352;SDS011;10834;52.268;6.770;2022-10-23T09:56:03;6.87;;;4.87;;
21352;SDS011;10834;52.268;6.770;2022-10-23T09:58:57;8.33;;;4.60;;
21352;SDS011;10834;52.268;6.770;2022-10-23T10:02:15;6.23;;;4.20;;
21352;SDS011;10834;52.268;6.770;2022-10-23T10:08:29;7.90;;;4.57;;
21352;SDS011;10834;52.268;6.770;2022-10-23T10:11:23;6.33;;;3.97;;
21352;SDS011;10834;52.268;6.770;2022-10-23T10:20:14;14.50;;;8.33;;
21352;SDS011;10834;52.268;6.770;2022-10-23T10:32:04;5.97;;;4.40;;
21352;SDS011;10834;52.268;6.770;2022-10-23T10:38:16;6.83;;;5.20;;
21352;SDS011;10834;52.268;6.770;2022-10-23T10:44:45;7.13;;;4.70;;
21352;SDS011;10834;52.268;6.770;2022-10-23T10:50:53;7.83;;;3.83;;
21352;SDS011;10834;52.268;6.770;2022-10-23T10:56:49;6.63;;;3.77;;
21352;SDS011;10834;52.268;6.770;2022-10-23T10:59:37;7.67;;;5.00;;
21352;SDS011;10834;52.268;6.770;2022-10-23T11:02:36;8.73;;;4.33;;
21352;SDS011;10834;52.268;6.770;2022-10-23T11:05:31;7.30;;;4.27;;
21352;SDS011;10834;52.268;6.770;2022-10-23T11:08:34;7.13;;;3.70;;
21352;SDS011;10834;52.268;6.770;2022-10-23T11:11:34;6.47;;;4.43;;
21352;SDS011;10834;52.268;6.770;2022-10-23T11:14:25;5.77;;;5.17;;
21352;SDS011;10834;52.268;6.770;2022-10-23T11:17:25;11.20;;;5.27;;
21352;SDS011;10834;52.268;6.770;2022-10-23T11:20:52;8.80;;;4.33;;
21352;SDS011;10834;52.268;6.770;2022-10-23T11:26:39;8.70;;;6.10;;
21352;SDS011;10834;52.268;6.770;2022-10-23T11:33:07;37.33;;;26.30;;
21352;SDS011;10834;52.268;6.770;2022-10-23T11:36:17;13.77;;;11.43;;
21352;SDS011;10834;52.268;6.770;2022-10-23T11:39:18;24.60;;;18.23;;
21352;SDS011;10834;52.268;6.770;2022-10-23T11:42:13;9.87;;;7.40;;
21352;SDS011;10834;52.268;6.770;2022-10-23T11:45:34;12.37;;;7.00;;
21352;SDS011;10834;52.268;6.770;2022-10-23T11:48:36;7.33;;;5.73;;
21352;SDS011;10834;52.268;6.770;2022-10-23T11:51:32;10.70;;;5.07;;
21352;SDS011;10834;52.268;6.770;2022-10-23T11:54:26;8.27;;;4.17;;
21352;SDS011;10834;52.268;6.770;2022-10-23T11:57:13;6.83;;;3.60;;
21352;SDS011;10834;52.268;6.770;2022-10-23T12:00:00;6.80;;;3.80;;
21352;SDS011;10834;52.268;6.770;2022-10-23T12:02:49;5.80;;;4.17;;
21352;SDS011;10834;52.268;6.770;2022-10-23T12:05:38;11.83;;;7.17;;
21352;SDS011;10834;52.268;6.770;2022-10-23T12:08:27;13.30;;;4.60;;
21352;SDS011;10834;52.268;6.770;2022-10-23T12:11:39;7.50;;;3.80;;
21352;SDS011;10834;52.268;6.770;2022-10-23T12:14:32;5.10;;;3.50;;
21352;SDS011;10834;52.268;6.770;2022-10-23T12:22:57;5.73;;;3.80;;
21352;SDS011;10834;52.268;6.770;2022-10-23T12:29:01;7.20;;;3.50;;
21352;SDS011;10834;52.268;6.770;2022-10-23T12:32:29;4.50;;;3.13;;
21352;SDS011;10834;52.268;6.770;2022-10-23T12:38:27;8.03;;;3.37;;
21352;SDS011;10834;52.268;6.770;2022-10-23T12:44:27;4.83;;;2.80;;
21352;SDS011;10834;52.268;6.770;2022-10-23T12:47:14;6.73;;;3.00;;
21352;SDS011;10834;52.268;6.770;2022-10-23T12:50:13;6.33;;;3.03;;
21352;SDS011;10834;52.268;6.770;2022-10-23T12:53:05;4.67;;;2.60;;
21352;SDS011;10834;52.268;6.770;2022-10-23T12:55:58;3.10;;;2.33;;
21352;SDS011;10834;52.268;6.770;2022-10-23T12:58:55;4.67;;;2.40;;
21352;SDS011;10834;52.268;6.770;2022-10-23T13:01:46;3.17;;;2.87;;
21352;SDS011;10834;52.268;6.770;2022-10-23T13:04:33;7.47;;;2.73;;
21352;SDS011;10834;52.268;6.770;2022-10-23T13:07:21;4.80;;;2.60;;
21352;SDS011;10834;52.268;6.770;2022-10-23T13:10:13;6.00;;;2.67;;
21352;SDS011;10834;52.268;6.770;2022-10-23T13:13:02;3.70;;;3.00;;
21352;SDS011;10834;52.268;6.770;2022-10-23T13:15:50;7.93;;;3.10;;
21352;SDS011;10834;52.268;6.770;2022-10-23T13:18:39;4.17;;;2.97;;
21352;SDS011;10834;52.268;6.770;2022-10-23T13:21:26;3.73;;;3.17;;
21352;SDS011;10834;52.268;6.770;2022-10-23T13:24:19;3.70;;;3.03;;
21352;SDS011;10834;52.268;6.770;2022-10-23T13:27:30;8.87;;;6.23;;
21352;SDS011;10834;52.268;6.770;2022-10-23T13:30:31;4.13;;;3.07;;
21352;SDS011;10834;52.268;6.770;2022-10-23T13:33:23;3.53;;;3.23;;
21352;SDS011;10834;52.268;6.770;2022-10-23T13:41:46;6.80;;;2.80;;
21352;SDS011;10834;52.268;6.770;2022-10-23T13:44:33;8.57;;;4.13;;
21352;SDS011;10834;52.268;6.770;2022-10-23T13:47:21;7.83;;;4.07;;
21352;SDS011;10834;52.268;6.770;2022-10-23T13:50:07;3.83;;;2.97;;
21352;SDS011;10834;52.268;6.770;2022-10-23T13:52:55;4.33;;;3.10;;
21352;SDS011;10834;52.268;6.770;2022-10-23T13:55:43;11.90;;;6.73;;
21352;SDS011;10834;52.268;6.770;2022-10-23T13:58:32;6.13;;;2.83;;
21352;SDS011;10834;52.268;6.770;2022-10-23T14:01:27;3.97;;;3.13;;
21352;SDS011;10834;52.268;6.770;2022-10-23T14:04:16;4.90;;;2.77;;
21352;SDS011;10834;52.268;6.770;2022-10-23T14:07:03;6.10;;;2.73;;
21352;SDS011;10834;52.268;6.770;2022-10-23T14:09:49;5.80;;;3.60;;
21352;SDS011;10834;52.268;6.770;2022-10-23T14:12:41;4.00;;;2.80;;
21352;SDS011;10834;52.268;6.770;2022-10-23T14:15:28;3.60;;;2.83;;
21352;SDS011;10834;52.268;6.770;2022-10-23T14:18:14;5.53;;;3.73;;
21352;SDS011;10834;52.268;6.770;2022-10-23T14:21:01;8.17;;;4.43;;
21352;SDS011;10834;52.268;6.770;2022-10-23T14:23:49;10.23;;;3.73;;
21352;SDS011;10834;52.268;6.770;2022-10-23T14:26:36;4.70;;;2.57;;
21352;SDS011;10834;52.268;6.770;2022-10-23T14:29:23;6.33;;;2.73;;
21352;SDS011;10834;52.268;6.770;2022-10-23T14:32:09;8.57;;;3.40;;
21352;SDS011;10834;52.268;6.770;2022-10-23T14:34:55;3.30;;;2.43;;
21352;SDS011;10834;52.268;6.770;2022-10-23T14:37:41;10.90;;;5.00;;
21352;SDS011;10834;52.268;6.770;2022-10-23T14:40:27;12.43;;;6.40;;
21352;SDS011;10834;52.268;6.770;2022-10-23T14:43:13;8.73;;;4.13;;
21352;SDS011;10834;52.268;6.770;2022-10-23T14:46:06;3.53;;;3.00;;
21352;SDS011;10834;52.268;6.770;2022-10-23T14:48:53;3.30;;;2.20;;
21352;SDS011;10834;52.268;6.770;2022-10-23T14:51:39;7.63;;;2.80;;
21352;SDS011;10834;52.268;6.770;2022-10-23T14:54:25;6.17;;;2.57;;
21352;SDS011;10834;52.268;6.770;2022-10-23T14:57:13;7.70;;;2.77;;
21352;SDS011;10834;52.268;6.770;2022-10-23T15:00:01;5.63;;;2.77;;
21352;SDS011;10834;52.268;6.770;2022-10-23T15:02:47;7.10;;;2.97;;
21352;SDS011;10834;52.268;6.770;2022-10-23T15:05:33;3.70;;;2.30;;
21352;SDS011;10834;52.268;6.770;2022-10-23T15:08:25;10.40;;;3.67;;
21352;SDS011;10834;52.268;6.770;2022-10-23T15:11:11;6.73;;;3.13;;
21352;SDS011;10834;52.268;6.770;2022-10-23T15:13:57;5.10;;;3.03;;
21352;SDS011;10834;52.268;6.770;2022-10-23T15:16:44;5.67;;;2.73;;
21352;SDS011;10834;52.268;6.770;2022-10-23T15:19:30;4.63;;;2.73;;
21352;SDS011;10834;52.268;6.770;2022-10-23T15:22:16;7.30;;;3.33;;
21352;SDS011;10834;52.268;6.770;2022-10-23T15:25:04;6.80;;;3.10;;
21352;SDS011;10834;52.268;6.770;2022-10-23T15:27:50;5.47;;;3.17;;
21352;SDS011;10834;52.268;6.770;2022-10-23T15:30:36;3.37;;;2.60;;
21352;SDS011;10834;52.268;6.770;2022-10-23T15:33:27;5.97;;;2.77;;
21352;SDS011;10834;52.268;6.770;2022-10-23T15:36:13;6.90;;;3.07;;
21352;SDS011;10834;52.268;6.770;2022-10-23T15:39:00;6.33;;;3.17;;
21352;SDS011;10834;52.268;6.770;2022-10-23T15:41:46;9.20;;;3.07;;
21352;SDS011;10834;52.268;6.770;2022-10-23T15:44:36;7.87;;;2.93;;
21352;SDS011;10834;52.268;6.770;2022-10-23T15:47:24;6.33;;;4.10;;
21352;SDS011;10834;52.268;6.770;2022-10-23T15:50:10;10.77;;;2.90;;
21352;SDS011;10834;52.268;6.770;2022-10-23T15:52:56;6.97;;;3.20;;
21352;SDS011;10834;52.268;6.770;2022-10-23T15:55:43;10.77;;;5.43;;
21352;SDS011;10834;52.268;6.770;2022-10-23T15:58:29;11.70;;;5.60;;
21352;SDS011;10834;52.268;6.770;2022-10-23T16:01:15;17.33;;;7.40;;
21352;SDS011;10834;52.268;6.770;2022-10-23T16:04:01;9.10;;;4.80;;
21352;SDS011;10834;52.268;6.770;2022-10-23T16:06:48;15.63;;;8.20;;
21352;SDS011;10834;52.268;6.770;2022-10-23T16:09:34;18.20;;;9.60;;
21352;SDS011;10834;52.268;6.770;2022-10-23T16:12:21;15.53;;;10.13;;
21352;SDS011;10834;52.268;6.770;2022-10-23T16:15:08;15.23;;;8.47;;
21352;SDS011;10834;52.268;6.770;2022-10-23T16:17:54;8.47;;;5.67;;
21352;SDS011;10834;52.268;6.770;2022-10-23T16:20:40;5.73;;;4.50;;
21352;SDS011;10834;52.268;6.770;2022-10-23T16:23:27;9.47;;;5.43;;
21352;SDS011;10834;52.268;6.770;2022-10-23T16:26:13;4.73;;;3.97;;
21352;SDS011;10834;52.268;6.770;2022-10-23T16:29:00;7.27;;;2.97;;
21352;SDS011;10834;52.268;6.770;2022-10-23T16:31:48;3.50;;;2.43;;
21352;SDS011;10834;52.268;6.770;2022-10-23T16:34:35;6.63;;;3.00;;
21352;SDS011;10834;52.268;6.770;2022-10-23T16:37:21;9.03;;;2.20;;
21352;SDS011;10834;52.268;6.770;2022-10-23T16:40:07;2.90;;;2.60;;
21352;SDS011;10834;52.268;6.770;2022-10-23T16:42:55;3.67;;;2.40;;
21352;SDS011;10834;52.268;6.770;2022-10-23T16:45:41;6.90;;;2.67;;
21352;SDS011;10834;52.268;6.770;2022-10-23T16:48:28;4.30;;;3.00;;
21352;SDS011;10834;52.268;6.770;2022-10-23T16:51:15;7.00;;;3.37;;
21352;SDS011;10834;52.268;6.770;2022-10-23T16:54:03;8.07;;;4.33;;
21352;SDS011;10834;52.268;6.770;2022-10-23T16:56:49;10.93;;;4.20;;
21352;SDS011;10834;52.268;6.770;2022-10-23T16:59:35;6.77;;;4.27;;
21352;SDS011;10834;52.268;6.770;2022-10-23T17:02:21;5.20;;;3.50;;
21352;SDS011;10834;52.268;6.770;2022-10-23T17:05:07;8.33;;;3.90;;
21352;SDS011;10834;52.268;6.770;2022-10-23T17:07:53;7.53;;;4.40;;
21352;SDS011;10834;52.268;6.770;2022-10-23T17:10:39;8.97;;;3.80;;
21352;SDS011;10834;52.268;6.770;2022-10-23T17:13:25;6.07;;;3.67;;
21352;SDS011;10834;52.268;6.770;2022-10-23T17:16:21;10.73;;;3.33;;
21352;SDS011;10834;52.268;6.770;2022-10-23T17:19:13;11.83;;;7.23;;
21352;SDS011;10834;52.268;6.770;2022-10-23T17:22:00;9.73;;;4.33;;
21352;SDS011;10834;52.268;6.770;2022-10-23T17:24:46;8.33;;;3.60;;
21352;SDS011;10834;52.268;6.770;2022-10-23T17:27:32;7.67;;;3.73;;
21352;SDS011;10834;52.268;6.770;2022-10-23T17:30:18;5.47;;;2.83;;
21352;SDS011;10834;52.268;6.770;2022-10-23T17:33:04;9.20;;;3.10;;
21352;SDS011;10834;52.268;6.770;2022-10-23T17:35:50;5.53;;;3.17;;
21352;SDS011;10834;52.268;6.770;2022-10-23T17:38:37;14.17;;;4.17;;
21352;SDS011;10834;52.268;6.770;2022-10-23T17:41:25;6.77;;;4.07;;
21352;SDS011;10834;52.268;6.770;2022-10-23T17:44:11;6.87;;;2.93;;
21352;SDS011;10834;52.268;6.770;2022-10-23T17:46:57;9.60;;;2.80;;
21352;SDS011;10834;52.268;6.770;2022-10-23T17:49:43;5.33;;;2.50;;
21352;SDS011;10834;52.268;6.770;2022-10-23T17:52:29;4.93;;;2.93;;
21352;SDS011;10834;52.268;6.770;2022-10-23T17:55:16;4.70;;;2.70;;
21352;SDS011;10834;52.268;6.770;2022-10-23T17:58:02;11.77;;;2.90;;
21352;SDS011;10834;52.268;6.770;2022-10-23T18:00:48;8.63;;;2.70;;
21352;SDS011;10834;52.268;6.770;2022-10-23T18:03:34;5.27;;;3.07;;
21352;SDS011;10834;52.268;6.770;2022-10-23T18:06:22;6.90;;;4.00;;
21352;SDS011;10834;52.268;6.770;2022-10-23T18:09:10;10.03;;;4.03;;
21352;SDS011;10834;52.268;6.770;2022-10-23T18:11:57;5.63;;;3.30;;
21352;SDS011;10834;52.268;6.770;2022-10-23T18:14:43;6.00;;;4.27;;
21352;SDS011;10834;52.268;6.770;2022-10-23T18:17:29;5.57;;;3.27;;
21352;SDS011;10834;52.268;6.770;2022-10-23T18:20:15;6.23;;;2.67;;
21352;SDS011;10834;52.268;6.770;2022-10-23T18:23:01;5.50;;;4.80;;
21352;SDS011;10834;52.268;6.770;2022-10-23T18:25:47;5.47;;;3.20;;
21352;SDS011;10834;52.268;6.770;2022-10-23T18:28:33;4.40;;;2.50;;